nws-alerts: Checking more than four warning/county codes can delay the loading of your pages. You should use a cron job to get the data.
EllijayWeather Station Historical Data
Daily Summary for February 15, 2019 Units:  English    Metric   Both
Daily Weekly Monthly Yearly Custom
  High: Low: Average:
Temperature: 55.8 °F 49.5 °F 52.5 °F
Dew Point: 54.5 °F 31.1 °F 47.5 °F
Humidity: 100% 46% 84%
Wind Speed: 2.9mph 0.0mph 0mph
Wind Gust: 3.0mph - -
Wind- - ENE
Pressure: 30.02 in 29.78 in -
Precipitation: 0.59 in    
Historical Graphs
 
 
Tabular Data for February 15, 2019
Time Temperature Dew Point Pressure Wind Wind Speed Wind Gust Humidity Rainfall Rate (Hourly) solar
00:04 51.4 °F 31.8 °F 30.01 in Calm     47% 0.00 in meteobridge W/m2
00:09 51.3 °F 33.3 °F 30.01 in Calm     50% 0.00 in meteobridge W/m2
00:14 51.3 °F 31.6 °F 30.01 in Calm     47% 0.00 in meteobridge W/m2
00:19 51.3 °F 31.1 °F 30.01 in Calm     46% 0.00 in meteobridge W/m2
00:24 51.3 °F 32.2 °F 30.01 in Calm   1.0 mph 48% 0.00 in meteobridge W/m2
00:29 51.3 °F 32.2 °F 30.01 in Calm     48% 0.00 in meteobridge W/m2
00:34 51.4 °F 32.9 °F 30.01 in Calm     49% 0.00 in meteobridge W/m2
00:39 51.4 °F 31.8 °F 30.01 in Calm     47% 0.00 in meteobridge W/m2
00:44 51.4 °F 31.8 °F 30.01 in Calm     47% 0.00 in meteobridge W/m2
00:49 51.4 °F 32.4 °F 30.01 in Calm     48% 0.00 in meteobridge W/m2
00:54 51.4 °F 32.9 °F 30.01 in Calm     49% 0.00 in meteobridge W/m2
00:59 51.4 °F 33.4 °F 30.01 in Calm     50% 0.00 in meteobridge W/m2
01:04 51.4 °F 32.9 °F 30.01 in Calm     49% 0.00 in meteobridge W/m2
01:09 51.4 °F 33.4 °F 30.01 in Calm     50% 0.00 in meteobridge W/m2
01:14 51.4 °F 32.9 °F 30.02 in Calm     49% 0.00 in meteobridge W/m2
01:19 51.4 °F 32.9 °F 30.02 in Calm   1.0 mph 49% 0.00 in meteobridge W/m2
01:24 51.6 °F 33.6 °F 30.01 in Calm     50% 0.00 in meteobridge W/m2
01:29 51.6 °F 34.2 °F 30.01 in Calm     51% 0.00 in meteobridge W/m2
01:34 51.4 °F 33.4 °F 30.01 in Calm     50% 0.00 in meteobridge W/m2
01:39 51.6 °F 34.5 °F 30.01 in Calm     52% 0.00 in meteobridge W/m2
01:44 51.6 °F 34.5 °F 30.01 in Calm     52% 0.00 in meteobridge W/m2
01:49 51.6 °F 34.2 °F 30.01 in Calm     51% 0.00 in meteobridge W/m2
01:54 51.4 °F 34.9 °F 30.01 in Calm     53% 0.00 in meteobridge W/m2
01:59 51.4 °F 34.9 °F 30.01 in Calm     53% 0.00 in meteobridge W/m2
02:04 51.4 °F 35.4 °F 30.01 in Calm     54% 0.00 in meteobridge W/m2
02:09 51.4 °F 35.8 °F 30.00 in Calm     55% 0.00 in meteobridge W/m2
02:14 51.4 °F 35.8 °F 30.00 in Calm     55% 0.00 in meteobridge W/m2
02:19 51.4 °F 36.3 °F 29.99 in Calm   1.0 mph 56% 0.00 in meteobridge W/m2
02:24 51.3 °F 36.5 °F 29.99 in Calm     57% 0.00 in meteobridge W/m2
02:29 51.3 °F 37.4 °F 29.99 in Calm     59% 0.00 in meteobridge W/m2
02:34 51.3 °F 37.4 °F 29.98 in Calm   2.0 mph 59% 0.00 in meteobridge W/m2
02:39 51.1 °F 37.2 °F 29.98 in Calm     59% 0.00 in meteobridge W/m2
02:44 51.1 °F 37.8 °F 29.98 in Calm     60% 0.00 in meteobridge W/m2
02:49 51.1 °F 37.8 °F 29.98 in Calm     60% 0.00 in meteobridge W/m2
02:54 51.3 °F 38.3 °F 29.98 in Calm     61% 0.00 in meteobridge W/m2
02:59 51.3 °F 38.7 °F 29.98 in Calm     62% 0.00 in meteobridge W/m2
03:04 51.1 °F 38.8 °F 29.97 in Calm     63% 0.00 in meteobridge W/m2
03:09 51.1 °F 38.8 °F 29.97 in Calm     63% 0.00 in meteobridge W/m2
03:14 51.3 °F 39.6 °F 29.97 in Calm     64% 0.00 in meteobridge W/m2
03:19 51.1 °F 39.4 °F 29.97 in Calm     64% 0.00 in meteobridge W/m2
03:24 51.1 °F 39.7 °F 29.97 in Calm     65% 0.00 in meteobridge W/m2
03:29 51.1 °F 39.7 °F 29.96 in Calm     65% 0.00 in meteobridge W/m2
03:34 51.1 °F 40.5 °F 29.96 in Calm   3.0 mph 67% 0.00 in meteobridge W/m2
03:39 51.1 °F 40.8 °F 29.96 in Calm     68% 0.00 in meteobridge W/m2
03:44 51.1 °F 41.2 °F 29.96 in Calm   1.0 mph 69% 0.00 in meteobridge W/m2
03:49 51.1 °F 41.2 °F 29.96 in Calm     69% 0.00 in meteobridge W/m2
03:54 51.1 °F 41.2 °F 29.95 in Calm     69% 0.00 in meteobridge W/m2
03:59 50.9 °F 41.5 °F 29.95 in Calm     70% 0.00 in meteobridge W/m2
04:04 50.7 °F 41.4 °F 29.94 in Calm     70% 0.00 in meteobridge W/m2
04:09 50.9 °F 41.9 °F 29.94 in Calm     71% 0.00 in meteobridge W/m2
04:14 50.7 °F 42.1 °F 29.94 in Calm     72% 0.00 in meteobridge W/m2
04:19 50.7 °F 42.1 °F 29.94 in Calm     72% 0.00 in meteobridge W/m2
04:24 50.7 °F 42.4 °F 29.94 in Calm     73% 0.00 in meteobridge W/m2
04:29 50.7 °F 42.4 °F 29.94 in Calm     73% 0.00 in meteobridge W/m2
04:34 50.7 °F 43.2 °F 29.94 in Calm     75% 0.00 in meteobridge W/m2
04:39 50.7 °F 43.2 °F 29.94 in Calm     75% 0.00 in meteobridge W/m2
04:44 50.7 °F 43.5 °F 29.93 in Calm   2.0 mph 76% 0.00 in meteobridge W/m2
04:49 50.7 °F 43.7 °F 29.93 in Calm     77% 0.00 in meteobridge W/m2
04:54 50.7 °F 43.7 °F 29.93 in Calm     77% 0.00 in meteobridge W/m2
04:59 50.7 °F 43.7 °F 29.93 in Calm     77% 0.00 in meteobridge W/m2
05:04 50.7 °F 43.5 °F 29.93 in Calm   1.0 mph 76% 0.00 in meteobridge W/m2
05:09 50.7 °F 44.1 °F 29.94 in Calm     78% 0.00 in meteobridge W/m2
05:14 50.7 °F 44.1 °F 29.94 in Calm     78% 0.00 in meteobridge W/m2
05:19 50.7 °F 43.7 °F 29.94 in Calm     77% 0.00 in meteobridge W/m2
05:24 50.7 °F 43.7 °F 29.94 in Calm     77% 0.00 in meteobridge W/m2
05:29 50.7 °F 43.7 °F 29.94 in Calm     77% 0.00 in meteobridge W/m2
05:34 50.7 °F 44.1 °F 29.94 in Calm     78% 0.00 in meteobridge W/m2
05:39 50.7 °F 44.1 °F 29.93 in Calm     78% 0.00 in meteobridge W/m2
05:44 50.7 °F 44.1 °F 29.93 in Calm     78% 0.00 in meteobridge W/m2
05:49 50.7 °F 44.1 °F 29.93 in Calm     78% 0.00 in meteobridge W/m2
05:54 50.7 °F 44.4 °F 29.93 in Calm     79% 0.00 in meteobridge W/m2
05:59 50.7 °F 44.4 °F 29.93 in Calm     79% 0.00 in meteobridge W/m2
06:03 50.5 °F 44.2 °F 29.93 in Calm     79% 0.00 in meteobridge W/m2
06:09 50.5 °F 44.6 °F 29.93 in Calm     80% 0.00 in meteobridge W/m2
06:14 50.5 °F 44.6 °F 29.92 in Calm     80% 0.00 in meteobridge W/m2
06:19 50.5 °F 44.6 °F 29.92 in Calm     80% 0.00 in meteobridge W/m2
06:24 50.5 °F 44.6 °F 29.92 in Calm     80% 0.00 in meteobridge W/m2
06:29 50.4 °F 44.1 °F 29.92 in Calm     79% 0.00 in meteobridge W/m2
06:34 50.4 °F 44.4 °F 29.92 in Calm     80% 0.00 in meteobridge W/m2
06:39 50.4 °F 44.4 °F 29.92 in Calm     80% 0.00 in meteobridge W/m2
06:44 50.4 °F 44.4 °F 29.92 in Calm     80% 0.00 in meteobridge W/m2
06:49 50.2 °F 44.6 °F 29.93 in Calm     81% 0.00 in meteobridge W/m2
06:54 50.2 °F 44.2 °F 29.93 in Calm     80% 0.00 in meteobridge W/m2
06:59 50.2 °F 44.2 °F 29.93 in Calm     80% 0.00 in meteobridge W/m2
07:04 50.2 °F 44.6 °F 29.93 in Calm     81% 0.00 in meteobridge W/m2
07:09 50.0 °F 44.4 °F 29.93 in Calm     81% 0.00 in meteobridge W/m2
07:14 50.0 °F 44.4 °F 29.93 in Calm     81% 0.00 in meteobridge W/m2
07:19 49.8 °F 44.2 °F 29.93 in Calm     81% 0.00 in meteobridge W/m2
07:24 49.8 °F 44.2 °F 29.93 in Calm     81% 0.00 in meteobridge W/m2
07:29 49.8 °F 44.6 °F 29.94 in Calm     82% 0.00 in meteobridge W/m2
07:34 49.8 °F 44.6 °F 29.94 in Calm     82% 0.00 in meteobridge W/m2
07:39 49.8 °F 44.6 °F 29.93 in Calm     82% 0.00 in meteobridge W/m2
07:44 49.6 °F 44.4 °F 29.94 in Calm     82% 0.00 in meteobridge W/m2
07:49 49.6 °F 44.8 °F 29.94 in Calm     83% 0.00 in meteobridge W/m2
07:54 49.6 °F 44.8 °F 29.93 in Calm     83% 0.00 in meteobridge W/m2
07:59 49.6 °F 44.8 °F 29.93 in Calm     83% 0.00 in meteobridge W/m2
08:04 49.6 °F 44.8 °F 29.94 in Calm     83% 0.00 in meteobridge W/m2
08:09 49.6 °F 44.8 °F 29.94 in Calm     83% 0.00 in meteobridge W/m2
08:14 49.6 °F 44.8 °F 29.95 in Calm     83% 0.00 in meteobridge W/m2
08:19 49.6 °F 44.8 °F 29.94 in Calm     83% 0.00 in meteobridge W/m2
08:24 49.6 °F 44.8 °F 29.94 in Calm     83% 0.00 in meteobridge W/m2
08:29 49.6 °F 44.8 °F 29.94 in Calm     83% 0.00 in meteobridge W/m2
08:34 49.5 °F 44.6 °F 29.94 in Calm     83% 0.00 in meteobridge W/m2
08:39 49.5 °F 44.8 °F 29.94 in Calm     84% 0.00 in meteobridge W/m2
08:44 49.5 °F 44.8 °F 29.94 in Calm     84% 0.00 in meteobridge W/m2
08:49 49.5 °F 44.8 °F 29.94 in Calm     84% 0.00 in meteobridge W/m2
08:54 49.5 °F 44.8 °F 29.94 in Calm     84% 0.00 in meteobridge W/m2
08:59 49.5 °F 44.8 °F 29.94 in Calm     84% 0.00 in meteobridge W/m2
09:04 49.5 °F 45.1 °F 29.94 in Calm     85% 0.00 in meteobridge W/m2
09:09 49.5 °F 45.1 °F 29.94 in Calm     85% 0.00 in meteobridge W/m2
09:14 49.5 °F 45.1 °F 29.94 in Calm     85% 0.00 in meteobridge W/m2
09:19 49.6 °F 45.3 °F 29.93 in Calm     85% 0.00 in meteobridge W/m2
09:24 49.6 °F 45.3 °F 29.93 in Calm     85% 0.00 in meteobridge W/m2
09:29 49.6 °F 45.7 °F 29.93 in Calm     86% 0.00 in meteobridge W/m2
09:34 49.6 °F 45.3 °F 29.93 in Calm     85% 0.00 in meteobridge W/m2
09:39 49.6 °F 45.3 °F 29.93 in Calm     85% 0.00 in meteobridge W/m2
09:44 49.8 °F 45.9 °F 29.93 in Calm     86% 0.00 in meteobridge W/m2
09:49 49.8 °F 45.9 °F 29.93 in Calm     86% 0.00 in meteobridge W/m2
09:54 50.0 °F 46.0 °F 29.94 in Calm     86% 0.00 in meteobridge W/m2
09:59 50.2 °F 46.4 °F 29.95 in Calm     87% 0.00 in meteobridge W/m2
10:04 50.4 °F 46.6 °F 29.94 in Calm     87% 0.00 in meteobridge W/m2
10:09 50.4 °F 46.6 °F 29.95 in Calm     87% 0.00 in meteobridge W/m2
10:14 50.5 °F 46.8 °F 29.95 in Calm     87% 0.00 in meteobridge W/m2
10:19 50.5 °F 46.8 °F 29.95 in Calm     87% 0.00 in meteobridge W/m2
10:24 50.7 °F 47.3 °F 29.96 in Calm     88% 0.00 in meteobridge W/m2
10:29 50.9 °F 47.1 °F 29.96 in Calm     87% 0.00 in meteobridge W/m2
10:34 51.1 °F 47.7 °F 29.96 in Calm     88% 0.00 in meteobridge W/m2
10:39 51.1 °F 47.7 °F 29.96 in Calm     88% 0.00 in meteobridge W/m2
10:44 51.3 °F 47.8 °F 29.96 in Calm   1.0 mph 88% 0.00 in meteobridge W/m2
10:49 51.4 °F 48.4 °F 29.95 in Calm     89% 0.00 in meteobridge W/m2
10:54 51.4 °F 48.4 °F 29.96 in Calm     89% 0.00 in meteobridge W/m2
10:59 51.6 °F 48.6 °F 29.95 in Calm     89% 0.00 in meteobridge W/m2
11:04 51.6 °F 48.6 °F 29.95 in Calm     89% 0.00 in meteobridge W/m2
11:09 51.8 °F 48.7 °F 29.95 in Calm     89% 0.00 in meteobridge W/m2
11:14 51.8 °F 48.9 °F 29.95 in Calm     90% 0.00 in meteobridge W/m2
11:19 51.8 °F 48.9 °F 29.95 in Calm     90% 0.00 in meteobridge W/m2
11:24 51.8 °F 48.9 °F 29.95 in Calm     90% 0.00 in meteobridge W/m2
11:29 52.0 °F 49.1 °F 29.95 in Calm     90% 0.00 in meteobridge W/m2
11:34 52.0 °F 49.1 °F 29.94 in Calm     90% 0.00 in meteobridge W/m2
11:39 52.3 °F 49.5 °F 29.94 in Calm     90% 0.00 in meteobridge W/m2
11:44 52.5 °F 49.5 °F 29.94 in Calm     89% 0.00 in meteobridge W/m2
11:49 52.5 °F 49.5 °F 29.95 in Calm     89% 0.00 in meteobridge W/m2
11:54 52.5 °F 49.5 °F 29.94 in Calm     89% 0.00 in meteobridge W/m2
11:59 52.9 °F 49.6 °F 29.95 in Calm     89% 0.00 in meteobridge W/m2
12:04 52.9 °F 49.6 °F 29.95 in Calm     89% 0.00 in meteobridge W/m2
12:09 53.1 °F 50.2 °F 29.95 in Calm     90% 0.00 in meteobridge W/m2
12:14 53.2 °F 50.4 °F 29.94 in Calm     90% 0.00 in meteobridge W/m2
12:19 53.2 °F 50.4 °F 29.95 in Calm     90% 0.00 in meteobridge W/m2
12:24 53.4 °F 50.2 °F 29.93 in Calm     89% 0.00 in meteobridge W/m2
12:29 53.4 °F 50.2 °F 29.93 in Calm     89% 0.00 in meteobridge W/m2
12:34 53.6 °F 50.4 °F 29.93 in Calm     89% 0.00 in meteobridge W/m2
12:39 53.8 °F 50.9 °F 29.92 in Calm     90% 0.00 in meteobridge W/m2
12:44 54.0 °F 51.1 °F 29.92 in Calm     90% 0.00 in meteobridge W/m2
12:49 54.3 °F 51.4 °F 29.92 in Calm     90% 0.00 in meteobridge W/m2
12:54 54.7 °F 51.4 °F 29.92 in Calm     89% 0.00 in meteobridge W/m2
12:59 54.7 °F 51.4 °F 29.91 in Calm     89% 0.00 in meteobridge W/m2
13:04 55.0 °F 51.8 °F 29.91 in Calm   1.0 mph 89% 0.00 in meteobridge W/m2
13:09 55.0 °F 51.8 °F 29.91 in Calm   1.0 mph 89% 0.00 in meteobridge W/m2
13:14 55.0 °F 51.8 °F 29.90 in SE 0.9 mph 1.0 mph 89% 0.00 in meteobridge W/m2
13:19 55.0 °F 51.8 °F 29.90 in Calm     89% 0.00 in meteobridge W/m2
13:24 55.0 °F 51.8 °F 29.90 in Calm     89% 0.00 in meteobridge W/m2
13:29 55.0 °F 51.8 °F 29.89 in Calm     89% 0.00 in meteobridge W/m2
13:34 55.0 °F 51.8 °F 29.89 in Calm   1.0 mph 89% 0.00 in meteobridge W/m2
13:39 55.0 °F 51.8 °F 29.89 in Calm   1.0 mph 89% 0.00 in meteobridge W/m2
13:44 55.0 °F 52.2 °F 29.89 in Calm   1.0 mph 90% 0.00 in meteobridge W/m2
13:49 55.0 °F 52.2 °F 29.89 in Calm     90% 0.00 in meteobridge W/m2
13:54 55.0 °F 52.2 °F 29.89 in Calm     90% 0.00 in meteobridge W/m2
13:59 55.0 °F 52.2 °F 29.89 in Calm   1.0 mph 90% 0.00 in meteobridge W/m2
14:04 55.0 °F 52.2 °F 29.88 in Calm     90% 0.00 in meteobridge W/m2
14:09 55.0 °F 52.2 °F 29.88 in Calm     90% 0.00 in meteobridge W/m2
14:14 55.2 °F 52.3 °F 29.88 in Calm     90% 0.00 in meteobridge W/m2
14:19 55.2 °F 52.9 °F 29.88 in Calm     92% 0.00 in meteobridge W/m2
14:24 55.2 °F 52.3 °F 29.88 in North 2.9 mph 3.0 mph 90% 0.00 in meteobridge W/m2
14:29 55.2 °F 52.3 °F 29.88 in Calm     90% 0.00 in meteobridge W/m2
14:34 55.4 °F 52.5 °F 29.88 in Calm     90% 0.00 in meteobridge W/m2
14:39 55.6 °F 52.7 °F 29.88 in Calm     90% 0.00 in meteobridge W/m2
14:44 55.6 °F 52.7 °F 29.88 in Calm     90% 0.00 in meteobridge W/m2
14:49 55.6 °F 52.7 °F 29.88 in Calm     90% 0.00 in meteobridge W/m2
14:54 55.8 °F 52.5 °F 29.88 in Calm     89% 0.00 in meteobridge W/m2
14:59 55.8 °F 52.5 °F 29.88 in Calm     89% 0.00 in meteobridge W/m2
15:04 55.6 °F 52.7 °F 29.88 in Calm     90% 0.00 in meteobridge W/m2
15:09 55.6 °F 52.7 °F 29.88 in Calm     90% 0.00 in meteobridge W/m2
15:14 55.6 °F 52.7 °F 29.88 in Calm     90% 0.00 in meteobridge W/m2
15:19 55.6 °F 52.7 °F 29.88 in Calm     90% 0.00 in meteobridge W/m2
15:24 55.6 °F 52.7 °F 29.88 in Calm   1.0 mph 90% 0.00 in meteobridge W/m2
15:29 55.6 °F 52.7 °F 29.87 in Calm     90% 0.00 in meteobridge W/m2
15:34 55.6 °F 53.1 °F 29.87 in Calm     91% 0.00 in meteobridge W/m2
15:39 55.6 °F 53.1 °F 29.86 in Calm     91% 0.00 in meteobridge W/m2
15:44 55.6 °F 53.2 °F 29.86 in Calm     92% 0.00 in meteobridge W/m2
15:49 55.6 °F 53.2 °F 29.86 in Calm     92% 0.01 in meteobridge W/m2
15:54 55.4 °F 53.4 °F 29.86 in Calm     93% 0.01 in meteobridge W/m2
15:59 55.2 °F 53.2 °F 29.86 in Calm     93% 0.02 in meteobridge W/m2
16:04 55.0 °F 53.1 °F 29.86 in Calm     93% 0.02 in meteobridge W/m2
16:09 55.0 °F 53.4 °F 29.85 in Calm     94% 0.03 in meteobridge W/m2
16:14 54.9 °F 53.2 °F 29.85 in Calm     94% 0.03 in meteobridge W/m2
16:19 54.9 °F 53.4 °F 29.85 in Calm     95% 0.03 in meteobridge W/m2
16:24 54.9 °F 53.4 °F 29.86 in Calm     95% 0.04 in meteobridge W/m2
16:29 54.7 °F 53.2 °F 29.86 in Calm     95% 0.04 in meteobridge W/m2
16:34 54.7 °F 53.2 °F 29.86 in Calm     95% 0.06 in meteobridge W/m2
16:39 54.5 °F 53.1 °F 29.85 in Calm     95% 0.06 in meteobridge W/m2
16:44 54.5 °F 53.1 °F 29.85 in Calm     95% 0.07 in meteobridge W/m2
16:49 54.5 °F 53.4 °F 29.85 in Calm     96% 0.06 in meteobridge W/m2
16:54 54.5 °F 53.4 °F 29.85 in Calm     96% 0.06 in meteobridge W/m2
16:59 54.3 °F 53.2 °F 29.85 in Calm     96% 0.06 in meteobridge W/m2
17:04 54.3 °F 53.2 °F 29.85 in Calm     96% 0.06 in meteobridge W/m2
17:09 54.3 °F 53.2 °F 29.85 in Calm     96% 0.05 in meteobridge W/m2
17:14 54.3 °F 53.2 °F 29.85 in Calm     96% 0.05 in meteobridge W/m2
17:19 54.3 °F 53.2 °F 29.85 in Calm     96% 0.05 in meteobridge W/m2
17:24 54.3 °F 53.4 °F 29.85 in Calm     97% 0.04 in meteobridge W/m2
17:29 54.3 °F 53.4 °F 29.85 in Calm     97% 0.04 in meteobridge W/m2
17:34 54.3 °F 53.4 °F 29.85 in Calm     97% 0.02 in meteobridge W/m2
17:39 54.1 °F 53.2 °F 29.85 in Calm     97% 0.02 in meteobridge W/m2
17:44 54.3 °F 53.4 °F 29.85 in Calm     97% 0.01 in meteobridge W/m2
17:49 54.1 °F 53.2 °F 29.85 in Calm     97% 0.01 in meteobridge W/m2
17:54 54.1 °F 53.2 °F 29.85 in Calm     97% 0.01 in meteobridge W/m2
17:59 54.1 °F 53.2 °F 29.85 in Calm     97% 0.00 in meteobridge W/m2
18:04 54.0 °F 53.1 °F 29.86 in Calm     97% 0.01 in meteobridge W/m2
18:09 54.1 °F 53.2 °F 29.86 in Calm     97% 0.01 in meteobridge W/m2
18:14 54.0 °F 53.1 °F 29.86 in Calm     97% 0.02 in meteobridge W/m2
18:19 54.0 °F 53.1 °F 29.86 in Calm     97% 0.02 in meteobridge W/m2
18:24 54.0 °F 53.1 °F 29.86 in Calm     97% 0.04 in meteobridge W/m2
18:29 54.0 °F 53.1 °F 29.86 in Calm     97% 0.05 in meteobridge W/m2
18:34 53.8 °F 52.9 °F 29.86 in Calm     97% 0.06 in meteobridge W/m2
18:39 53.8 °F 52.9 °F 29.86 in Calm     97% 0.06 in meteobridge W/m2
18:44 53.8 °F 52.9 °F 29.86 in Calm     97% 0.07 in meteobridge W/m2
18:49 53.8 °F 52.9 °F 29.85 in Calm     97% 0.09 in meteobridge W/m2
18:54 53.8 °F 52.9 °F 29.86 in Calm     97% 0.09 in meteobridge W/m2
18:59 53.8 °F 52.9 °F 29.86 in Calm     97% 0.09 in meteobridge W/m2
19:04 53.6 °F 52.7 °F 29.86 in Calm     97% 0.09 in meteobridge W/m2
19:09 53.6 °F 53.6 °F 29.86 in Calm     100% 0.10 in meteobridge W/m2
19:14 53.6 °F 52.7 °F 29.86 in Calm     97% 0.09 in meteobridge W/m2
19:19 53.6 °F 53.6 °F 29.87 in Calm     100% 0.10 in meteobridge W/m2
19:24 53.4 °F 52.5 °F 29.87 in Calm     97% 0.09 in meteobridge W/m2
19:29 53.4 °F 52.5 °F 29.87 in Calm     97% 0.09 in meteobridge W/m2
19:34 53.4 °F 52.5 °F 29.86 in Calm     97% 0.10 in meteobridge W/m2
19:39 53.4 °F 52.5 °F 29.87 in Calm     97% 0.12 in meteobridge W/m2
19:44 53.4 °F 52.9 °F 29.87 in Calm     98% 0.11 in meteobridge W/m2
19:49 53.4 °F 52.5 °F 29.87 in Calm     97% 0.11 in meteobridge W/m2
19:54 53.4 °F 52.9 °F 29.87 in Calm     98% 0.13 in meteobridge W/m2
19:59 53.4 °F 52.9 °F 29.87 in Calm     98% 0.13 in meteobridge W/m2
20:04 53.6 °F 53.1 °F 29.86 in Calm     98% 0.13 in meteobridge W/m2
20:09 53.4 °F 52.9 °F 29.86 in Calm     98% 0.12 in meteobridge W/m2
20:14 53.4 °F 52.9 °F 29.86 in Calm     98% 0.13 in meteobridge W/m2
20:19 53.4 °F 52.9 °F 29.86 in Calm     98% 0.12 in meteobridge W/m2
20:24 53.4 °F 52.9 °F 29.85 in Calm     98% 0.11 in meteobridge W/m2
20:29 53.6 °F 53.1 °F 29.85 in Calm     98% 0.10 in meteobridge W/m2
20:34 53.4 °F 52.9 °F 29.85 in Calm     98% 0.08 in meteobridge W/m2
20:39 53.4 °F 52.9 °F 29.85 in Calm     98% 0.06 in meteobridge W/m2
20:44 53.4 °F 52.9 °F 29.85 in Calm     98% 0.07 in meteobridge W/m2
20:49 53.6 °F 53.1 °F 29.84 in Calm     98% 0.05 in meteobridge W/m2
20:54 53.6 °F 53.1 °F 29.84 in Calm     98% 0.04 in meteobridge W/m2
20:59 53.4 °F 52.9 °F 29.84 in Calm     98% 0.04 in meteobridge W/m2
21:04 53.6 °F 53.1 °F 29.84 in Calm     98% 0.04 in meteobridge W/m2
21:09 53.6 °F 53.1 °F 29.83 in Calm     98% 0.04 in meteobridge W/m2
21:14 53.8 °F 53.2 °F 29.84 in Calm     98% 0.03 in meteobridge W/m2
21:19 53.8 °F 53.2 °F 29.84 in Calm     98% 0.03 in meteobridge W/m2
21:24 53.6 °F 53.1 °F 29.84 in Calm     98% 0.03 in meteobridge W/m2
21:29 53.6 °F 53.1 °F 29.84 in Calm     98% 0.03 in meteobridge W/m2
21:34 53.4 °F 52.9 °F 29.84 in Calm     98% 0.03 in meteobridge W/m2
21:39 53.4 °F 52.9 °F 29.83 in Calm     98% 0.03 in meteobridge W/m2
21:44 53.4 °F 52.9 °F 29.83 in Calm     98% 0.03 in meteobridge W/m2
21:49 53.4 °F 52.9 °F 29.83 in Calm     98% 0.03 in meteobridge W/m2
21:54 53.2 °F 52.7 °F 29.82 in Calm     98% 0.03 in meteobridge W/m2
21:59 53.4 °F 52.9 °F 29.83 in Calm     98% 0.03 in meteobridge W/m2
22:04 53.2 °F 52.7 °F 29.83 in Calm     98% 0.03 in meteobridge W/m2
22:09 53.2 °F 52.7 °F 29.82 in Calm     98% 0.03 in meteobridge W/m2
22:14 53.4 °F 52.9 °F 29.83 in Calm     98% 0.04 in meteobridge W/m2
22:19 53.4 °F 52.9 °F 29.82 in Calm     98% 0.04 in meteobridge W/m2
22:24 53.2 °F 52.7 °F 29.81 in Calm     98% 0.06 in meteobridge W/m2
22:29 53.4 °F 52.9 °F 29.81 in Calm     98% 0.06 in meteobridge W/m2
22:34 53.4 °F 53.1 °F 29.81 in Calm     99% 0.06 in meteobridge W/m2
22:39 53.4 °F 53.1 °F 29.81 in Calm     99% 0.06 in meteobridge W/m2
22:44 53.6 °F 53.2 °F 29.81 in Calm     99% 0.06 in meteobridge W/m2
22:49 53.6 °F 53.2 °F 29.81 in Calm     99% 0.05 in meteobridge W/m2
22:54 53.8 °F 53.4 °F 29.81 in Calm     99% 0.05 in meteobridge W/m2
22:59 54.0 °F 53.6 °F 29.80 in Calm     99% 0.05 in meteobridge W/m2
23:04 54.0 °F 53.6 °F 29.80 in Calm     99% 0.05 in meteobridge W/m2
23:09 54.0 °F 53.6 °F 29.80 in Calm     99% 0.04 in meteobridge W/m2
23:14 54.1 °F 53.8 °F 29.80 in Calm     99% 0.03 in meteobridge W/m2
23:19 54.3 °F 54.0 °F 29.79 in Calm     99% 0.03 in meteobridge W/m2
23:24 54.3 °F 54.0 °F 29.79 in Calm     99% 0.01 in meteobridge W/m2
23:29 54.3 °F 54.0 °F 29.79 in Calm     99% 0.02 in meteobridge W/m2
23:34 54.3 °F 54.0 °F 29.79 in Calm     99% 0.03 in meteobridge W/m2
23:39 54.5 °F 54.1 °F 29.79 in Calm     99% 0.04 in meteobridge W/m2
23:44 54.5 °F 54.1 °F 29.78 in Calm     99% 0.10 in meteobridge W/m2
23:49 54.7 °F 54.3 °F 29.78 in Calm     99% 0.13 in meteobridge W/m2
23:54 54.9 °F 54.5 °F 29.78 in Calm     99% 0.15 in meteobridge W/m2
23:59 54.9 °F 54.5 °F 29.78 in Calm     99% 0.17 in meteobridge W/m2
EllijayWeather
Compliments of Weather Underground - 2.5 mb